createdAt,value
2018-03-15T00:01:48.567Z,23.80
2018-03-15T00:04:14.759Z,22.30
2018-03-15T00:06:41.687Z,22.47
2018-03-15T00:09:08.662Z,22.00
2018-03-15T00:11:34.907Z,22.53
2018-03-15T00:14:01.188Z,24.00
2018-03-15T00:16:28.301Z,23.63
2018-03-15T00:18:54.540Z,22.80
2018-03-15T00:21:20.759Z,25.63
2018-03-15T00:26:37.244Z,24.30
2018-03-15T00:29:04.189Z,23.73
2018-03-15T00:31:31.514Z,24.23
2018-03-15T00:33:57.733Z,23.53
2018-03-15T00:36:23.956Z,20.57
2018-03-15T00:38:50.204Z,22.80
2018-03-15T00:41:16.405Z,24.00
2018-03-15T00:43:42.618Z,23.70
2018-03-15T00:46:08.841Z,24.17
2018-03-15T00:48:35.441Z,22.97
2018-03-15T00:51:02.388Z,22.60
2018-03-15T00:53:29.301Z,25.50
2018-03-15T00:55:55.492Z,25.40
2018-03-15T00:58:21.695Z,21.80
2018-03-15T01:00:48.653Z,31.33
2018-03-15T01:03:15.307Z,24.43
2018-03-15T01:05:41.578Z,24.00
2018-03-15T01:08:07.762Z,26.43
2018-03-15T01:10:33.951Z,21.67
2018-03-15T01:13:00.142Z,27.30
2018-03-15T01:15:26.348Z,22.83
2018-03-15T01:17:52.536Z,25.20
2018-03-15T01:20:18.720Z,30.80
2018-03-15T01:22:44.899Z,23.37
2018-03-15T01:25:11.871Z,30.03
2018-03-15T01:27:38.020Z,22.43
2018-03-15T01:30:04.184Z,27.90
2018-03-15T01:32:30.375Z,22.80
2018-03-15T01:34:56.538Z,27.00
2018-03-15T01:37:22.757Z,27.17
2018-03-15T01:39:48.920Z,22.17
2018-03-15T01:42:15.852Z,26.40
2018-03-15T01:44:42.213Z,26.70
2018-03-15T01:47:08.403Z,27.67
2018-03-15T01:49:34.561Z,26.43
2018-03-15T01:52:00.756Z,28.43
2018-03-15T01:54:26.893Z,31.50
2018-03-15T01:56:53.071Z,24.17
2018-03-15T01:59:19.222Z,27.10
2018-03-15T02:01:45.439Z,24.83
2018-03-15T02:04:11.642Z,26.70
2018-03-15T02:06:37.858Z,26.47
2018-03-15T02:09:04.103Z,26.33
2018-03-15T02:11:30.302Z,25.60
2018-03-15T02:13:57.246Z,21.83
2018-03-15T02:16:24.151Z,25.17
2018-03-15T02:18:50.355Z,27.73
2018-03-15T02:21:16.512Z,25.10
2018-03-15T02:23:42.731Z,25.73
2018-03-15T02:26:08.912Z,26.83
2018-03-15T02:28:35.167Z,27.80
2018-03-15T02:31:01.375Z,29.23
2018-03-15T02:33:28.303Z,22.07
2018-03-15T02:35:54.491Z,26.37
2018-03-15T02:38:20.710Z,26.53
2018-03-15T02:40:46.925Z,25.50
2018-03-15T02:43:13.154Z,26.30
2018-03-15T02:45:39.379Z,25.97
2018-03-15T02:48:05.563Z,24.37
2018-03-15T02:50:31.741Z,29.57
2018-03-15T02:52:57.953Z,22.80
2018-03-15T02:55:24.849Z,28.53
2018-03-15T02:57:51.052Z,23.93
2018-03-15T03:00:17.240Z,29.17
2018-03-15T03:02:44.229Z,25.23
2018-03-15T03:05:10.410Z,28.87
2018-03-15T03:07:37.452Z,24.33
2018-03-15T03:10:03.652Z,27.90
2018-03-15T03:12:29.852Z,26.17
2018-03-15T03:14:56.053Z,23.77
2018-03-15T03:17:23.026Z,22.67
2018-03-15T03:19:49.292Z,30.67
2018-03-15T03:22:15.596Z,25.67
2018-03-15T03:24:41.802Z,29.60
2018-03-15T03:27:08.004Z,28.30
2018-03-15T03:29:34.986Z,25.50
2018-03-15T03:32:01.179Z,23.80
2018-03-15T03:34:28.129Z,23.52
2018-03-15T03:36:55.048Z,26.93
2018-03-15T03:39:21.225Z,27.37
2018-03-15T03:41:47.422Z,23.30
2018-03-15T03:44:13.633Z,32.17
2018-03-15T03:46:39.846Z,32.77
2018-03-15T03:49:06.064Z,24.57
2018-03-15T03:51:32.320Z,26.77
2018-03-15T03:53:58.558Z,23.40
2018-03-15T03:56:24.763Z,31.17
2018-03-15T03:58:50.980Z,22.73
2018-03-15T04:01:17.141Z,25.87
2018-03-15T04:03:43.387Z,23.60
2018-03-15T04:06:09.577Z,26.47
2018-03-15T04:08:36.468Z,27.37
2018-03-15T04:11:03.387Z,26.20
2018-03-15T04:13:29.572Z,25.80
2018-03-15T04:15:55.891Z,26.23
2018-03-15T04:18:22.111Z,28.83
2018-03-15T04:20:49.071Z,31.03
2018-03-15T04:23:15.272Z,27.60
2018-03-15T04:25:42.158Z,24.63
2018-03-15T04:28:08.326Z,25.93
2018-03-15T04:30:34.525Z,29.30
2018-03-15T04:33:00.778Z,27.57
2018-03-15T04:35:26.946Z,24.23
2018-03-15T04:37:53.931Z,26.00
2018-03-15T04:40:20.123Z,25.27
2018-03-15T04:42:46.322Z,26.42
2018-03-15T04:45:19.452Z,27.77
2018-03-15T04:47:45.616Z,24.20
2018-03-15T04:50:11.778Z,25.73
2018-03-15T04:52:38.717Z,27.47
2018-03-15T04:55:04.921Z,25.43
2018-03-15T04:57:31.113Z,23.90
2018-03-15T04:59:57.374Z,26.30
2018-03-15T05:02:23.632Z,28.37
2018-03-15T05:04:49.802Z,28.80
2018-03-15T05:07:15.992Z,26.80
2018-03-15T05:09:42.974Z,26.93
2018-03-15T05:12:09.166Z,25.93
2018-03-15T05:14:35.363Z,27.40
2018-03-15T05:17:01.611Z,29.47
2018-03-15T05:19:27.743Z,29.00
2018-03-15T05:21:53.905Z,28.87
2018-03-15T05:24:20.133Z,26.40
2018-03-15T05:26:46.382Z,25.50
2018-03-15T05:29:12.645Z,27.57
2018-03-15T05:31:38.763Z,23.60
2018-03-15T05:34:04.988Z,25.20
2018-03-15T05:36:31.185Z,25.60
2018-03-15T05:38:57.401Z,26.57
2018-03-15T05:41:23.623Z,29.53
2018-03-15T05:43:51.173Z,24.97
2018-03-15T05:46:18.113Z,25.80
2018-03-15T05:48:45.113Z,28.67
2018-03-15T05:51:11.299Z,24.43
2018-03-15T05:53:39.222Z,29.33
2018-03-15T05:56:05.403Z,27.42
2018-03-15T05:58:31.602Z,27.27
2018-03-15T06:00:57.850Z,41.88
2018-03-15T06:03:24.790Z,29.73
2018-03-15T06:05:51.697Z,26.77
2018-03-15T06:08:17.919Z,22.83
2018-03-15T06:10:44.114Z,28.90
2018-03-15T06:13:11.006Z,26.67
2018-03-15T06:15:37.161Z,25.77
2018-03-15T06:18:04.104Z,23.87
2018-03-15T06:20:30.339Z,29.37
2018-03-15T06:22:56.537Z,25.23
2018-03-15T06:25:22.706Z,22.63
2018-03-15T06:27:49.643Z,26.40
2018-03-15T06:30:16.671Z,21.87
2018-03-15T06:32:42.900Z,21.70
2018-03-15T06:35:10.131Z,21.17
2018-03-15T06:37:36.335Z,19.47
2018-03-15T06:40:02.568Z,23.97
2018-03-15T06:42:28.750Z,23.10
2018-03-15T06:44:54.957Z,23.40
2018-03-15T06:47:21.135Z,23.83
2018-03-15T06:49:48.096Z,26.20
2018-03-15T06:52:14.278Z,23.47
2018-03-15T06:54:41.357Z,21.83
2018-03-15T06:57:08.703Z,24.17
2018-03-15T06:59:35.683Z,22.50
2018-03-15T07:02:01.951Z,22.87
2018-03-15T07:04:28.183Z,26.47
2018-03-15T07:06:54.396Z,20.27
2018-03-15T07:09:20.576Z,22.50
2018-03-15T07:11:46.891Z,19.67
2018-03-15T07:14:13.794Z,19.97
2018-03-15T07:16:40.005Z,21.10
2018-03-15T07:19:06.192Z,19.53
2018-03-15T07:21:33.143Z,20.67
2018-03-15T07:24:00.076Z,21.60
2018-03-15T07:26:26.270Z,20.57
2018-03-15T07:28:52.574Z,21.77
2018-03-15T07:31:18.785Z,30.20
2018-03-15T07:33:45.756Z,20.70
2018-03-15T07:36:12.038Z,23.17
2018-03-15T07:38:38.884Z,18.90
2018-03-15T07:41:05.152Z,22.30
2018-03-15T07:43:31.351Z,19.60
2018-03-15T07:45:58.327Z,21.00
2018-03-15T07:48:24.518Z,20.27
2018-03-15T07:50:51.603Z,19.23
2018-03-15T07:53:17.774Z,21.93
2018-03-15T07:55:44.569Z,22.43
2018-03-15T07:58:10.771Z,22.33
2018-03-15T08:00:38.607Z,22.60
2018-03-15T08:03:05.163Z,21.47
2018-03-15T08:05:31.327Z,19.87
2018-03-15T08:07:57.514Z,20.70
2018-03-15T08:10:23.704Z,21.27
2018-03-15T08:12:49.906Z,22.90
2018-03-15T08:15:17.758Z,20.63
2018-03-15T08:17:44.688Z,23.23
2018-03-15T08:20:10.861Z,19.13
2018-03-15T08:22:37.060Z,20.80
2018-03-15T08:25:04.044Z,24.13
2018-03-15T08:27:30.196Z,22.03
2018-03-15T08:29:56.404Z,19.43
2018-03-15T08:32:22.582Z,25.00
2018-03-15T08:34:49.569Z,21.00
2018-03-15T08:37:15.773Z,19.77
2018-03-15T08:39:42.008Z,19.90
2018-03-15T08:42:08.814Z,20.57
2018-03-15T08:44:35.023Z,19.87
2018-03-15T08:47:01.198Z,22.87
2018-03-15T08:49:28.436Z,23.30
2018-03-15T08:51:54.641Z,23.13
2018-03-15T08:54:20.868Z,21.63
2018-03-15T08:56:47.341Z,20.87
2018-03-15T08:59:14.257Z,21.17
2018-03-15T09:01:40.485Z,18.50
2018-03-15T09:04:06.730Z,25.03
2018-03-15T09:06:32.964Z,20.00
2018-03-15T09:09:00.768Z,21.00
2018-03-15T09:11:27.014Z,19.13
2018-03-15T09:13:53.175Z,24.87
2018-03-15T09:16:19.444Z,20.00
2018-03-15T09:18:45.621Z,20.73
2018-03-15T09:21:11.863Z,17.90
2018-03-15T09:23:38.102Z,15.97
2018-03-15T09:26:04.268Z,23.47
2018-03-15T09:28:30.462Z,20.03
2018-03-15T09:30:57.415Z,22.57
2018-03-15T09:33:23.661Z,19.90
2018-03-15T09:35:49.937Z,19.30
2018-03-15T09:38:16.126Z,22.03
2018-03-15T09:40:42.332Z,16.37
2018-03-15T09:43:09.268Z,20.07
2018-03-15T09:45:36.175Z,19.60
2018-03-15T09:48:02.387Z,21.17
2018-03-15T09:50:28.612Z,18.63
2018-03-15T09:52:54.794Z,18.83
2018-03-15T09:55:20.991Z,19.13
2018-03-15T09:57:47.208Z,17.63
2018-03-15T10:00:13.483Z,18.97
2018-03-15T10:02:40.452Z,18.87
2018-03-15T10:05:06.687Z,16.50
2018-03-15T10:07:32.880Z,18.50
2018-03-15T10:09:59.164Z,23.10
2018-03-15T10:12:25.351Z,17.53
2018-03-15T10:14:53.258Z,17.83
2018-03-15T10:17:19.431Z,18.10
2018-03-15T10:19:45.624Z,14.63
2018-03-15T10:22:11.916Z,17.67
2018-03-15T10:24:38.066Z,13.97
2018-03-15T10:27:04.328Z,16.27
2018-03-15T10:29:30.576Z,18.03
2018-03-15T10:31:56.843Z,14.97
2018-03-15T10:34:23.063Z,15.97
2018-03-15T10:36:50.026Z,15.60
2018-03-15T10:39:17.086Z,19.10
2018-03-15T10:41:43.318Z,16.10
2018-03-15T10:44:09.560Z,15.97
2018-03-15T10:46:35.735Z,14.30
2018-03-15T10:49:02.876Z,14.27
2018-03-15T10:51:29.115Z,14.30
2018-03-15T10:53:56.019Z,14.77
2018-03-15T10:56:22.248Z,16.80
2018-03-15T10:58:48.462Z,17.40
2018-03-15T11:01:20.627Z,18.33
2018-03-15T11:03:49.838Z,16.10
2018-03-15T11:06:22.084Z,14.67
2018-03-15T11:08:57.380Z,13.10
2018-03-15T11:11:23.627Z,16.70
2018-03-15T11:13:50.561Z,11.63
2018-03-15T11:16:16.750Z,16.23
2018-03-15T11:18:42.945Z,17.70
2018-03-15T11:21:09.152Z,15.80
2018-03-15T11:23:35.354Z,12.43
2018-03-15T11:26:01.563Z,13.63
2018-03-15T11:28:27.814Z,19.80
2018-03-15T11:30:54.040Z,17.83
2018-03-15T11:33:20.234Z,14.33
2018-03-15T11:35:46.450Z,13.67
2018-03-15T11:38:12.657Z,15.80
2018-03-15T11:40:39.598Z,12.57
2018-03-15T11:43:06.579Z,13.00
2018-03-15T11:45:32.781Z,14.23
2018-03-15T11:47:59.718Z,13.80
2018-03-15T11:50:26.602Z,13.00
2018-03-15T11:52:52.810Z,12.80
2018-03-15T11:55:19.142Z,19.00
2018-03-15T11:57:45.354Z,12.33
2018-03-15T12:00:12.294Z,13.60
2018-03-15T12:02:38.505Z,11.90
2018-03-15T12:05:04.710Z,14.47
2018-03-15T12:07:30.954Z,12.93
2018-03-15T12:09:57.215Z,13.07
2018-03-15T12:12:24.219Z,14.00
2018-03-15T12:14:50.472Z,11.77
2018-03-15T12:17:16.684Z,14.27
2018-03-15T12:19:42.844Z,13.40
2018-03-15T12:22:09.078Z,11.27
2018-03-15T12:24:36.000Z,13.10
2018-03-15T12:27:02.222Z,12.70
2018-03-15T12:29:29.124Z,12.17
2018-03-15T12:31:55.338Z,16.37
2018-03-15T12:34:22.887Z,11.43
2018-03-15T12:36:49.162Z,12.67
2018-03-15T12:39:15.499Z,12.03
2018-03-15T12:41:41.730Z,10.47
2018-03-15T12:44:07.998Z,9.97
2018-03-15T12:46:34.283Z,11.90
2018-03-15T12:49:00.475Z,12.63
2018-03-15T12:51:27.386Z,11.20
2018-03-15T12:53:53.549Z,10.77
2018-03-15T12:56:20.502Z,12.83
2018-03-15T12:58:47.465Z,11.97
2018-03-15T13:01:13.693Z,12.20
2018-03-15T13:03:39.940Z,11.60
2018-03-15T13:06:06.110Z,12.43
2018-03-15T13:08:33.089Z,11.00
2018-03-15T13:10:59.299Z,10.07
2018-03-15T13:13:26.256Z,10.50
2018-03-15T13:15:53.280Z,11.80
2018-03-15T13:18:19.443Z,15.60
2018-03-15T13:20:45.744Z,10.77
2018-03-15T13:23:12.723Z,11.83
2018-03-15T13:25:39.711Z,11.27
2018-03-15T13:28:05.895Z,12.40
2018-03-15T13:30:33.117Z,10.50
2018-03-15T13:32:59.308Z,10.40
2018-03-15T13:35:25.511Z,12.87
2018-03-15T13:37:51.699Z,14.63
2018-03-15T13:40:17.955Z,10.30
2018-03-15T13:42:44.134Z,13.23
2018-03-15T13:45:10.346Z,10.67
2018-03-15T13:47:36.559Z,9.03
2018-03-15T13:50:02.831Z,10.53
2018-03-15T13:52:29.046Z,9.10
2018-03-15T13:54:55.240Z,9.83
2018-03-15T13:57:21.505Z,10.77
2018-03-15T13:59:48.396Z,11.60
2018-03-15T14:02:15.336Z,14.07
2018-03-15T14:04:42.307Z,11.40
2018-03-15T14:07:08.503Z,8.93
2018-03-15T14:09:35.445Z,8.70
2018-03-15T14:12:02.473Z,9.53
2018-03-15T14:14:28.731Z,12.90
2018-03-15T14:16:54.921Z,12.67
2018-03-15T14:19:21.110Z,11.07
2018-03-15T14:21:47.374Z,41.47
2018-03-15T14:24:13.605Z,10.87
2018-03-15T14:26:39.831Z,10.90
2018-03-15T14:29:06.054Z,11.40
2018-03-15T14:31:32.233Z,10.30
2018-03-15T14:43:44.242Z,12.57
2018-03-15T14:46:10.411Z,8.13
2018-03-15T14:48:36.573Z,13.03
2018-03-15T14:51:02.822Z,11.60
2018-03-15T14:53:29.010Z,11.67
2018-03-15T14:55:55.972Z,12.13
2018-03-15T14:58:22.213Z,10.70
2018-03-15T15:00:48.471Z,11.20
2018-03-15T15:03:14.695Z,12.60
2018-03-15T15:05:40.976Z,12.63
2018-03-15T15:08:07.946Z,8.90
2018-03-15T15:10:34.106Z,13.10
2018-03-15T15:13:00.331Z,13.60
2018-03-15T15:15:26.646Z,11.37
2018-03-15T15:17:52.831Z,9.50
2018-03-15T15:20:19.811Z,12.73
2018-03-15T15:22:46.055Z,11.17
2018-03-15T15:25:12.673Z,15.90
2018-03-15T16:49:35.185Z,8.57
2018-03-15T16:52:01.411Z,10.43
2018-03-15T16:54:27.654Z,9.17
2018-03-15T16:56:53.842Z,10.27
2018-03-15T16:59:20.020Z,9.87
2018-03-15T17:01:46.213Z,8.00
2018-03-15T17:04:13.444Z,9.40
2018-03-15T17:06:39.652Z,9.63
2018-03-15T17:09:05.932Z,9.33
2018-03-15T17:11:32.165Z,11.20
2018-03-15T17:13:58.381Z,11.27
2018-03-15T17:16:24.595Z,11.43
2018-03-15T17:18:51.649Z,12.00
2018-03-15T17:21:18.641Z,10.13
2018-03-15T17:23:44.825Z,11.57
2018-03-15T17:26:11.747Z,12.90
2018-03-15T17:28:52.877Z,9.50
2018-03-15T17:31:19.151Z,10.50
2018-03-15T17:33:45.323Z,9.13
2018-03-15T17:36:12.239Z,13.77
2018-03-15T17:38:38.509Z,8.80
2018-03-15T17:41:04.809Z,12.70
2018-03-15T17:43:31.806Z,13.20
2018-03-15T17:45:58.092Z,9.33
2018-03-15T17:48:25.079Z,11.57
2018-03-15T17:50:52.534Z,5.80
2018-03-15T17:53:18.742Z,9.70
2018-03-15T17:55:44.950Z,7.60
2018-03-15T17:58:11.940Z,5.60
2018-03-15T18:00:38.140Z,7.70
2018-03-15T18:03:05.603Z,9.87
2018-03-15T18:05:31.822Z,8.10
2018-03-15T18:07:58.937Z,6.80
2018-03-15T18:10:25.199Z,9.90
2018-03-15T18:12:52.208Z,8.47
2018-03-15T18:15:18.480Z,8.50
2018-03-15T18:17:45.401Z,8.90
2018-03-15T18:20:11.652Z,10.03
2018-03-15T18:22:37.938Z,8.67
2018-03-15T18:25:04.228Z,10.40
2018-03-15T18:27:30.564Z,8.70
2018-03-15T18:29:57.514Z,10.90
2018-03-15T18:32:23.749Z,12.03
2018-03-15T18:34:50.010Z,8.33
2018-03-15T18:37:16.674Z,10.23
2018-03-15T18:39:42.900Z,12.07
2018-03-15T18:42:09.099Z,10.10
2018-03-15T18:44:35.322Z,7.80
2018-03-15T18:47:01.620Z,10.60
2018-03-15T18:49:27.839Z,9.97
2018-03-15T18:51:55.099Z,9.57
2018-03-15T18:54:21.461Z,11.00
2018-03-15T18:56:47.726Z,10.20
2018-03-15T18:59:13.992Z,10.20
2018-03-15T19:01:42.141Z,9.23
2018-03-15T19:04:09.410Z,10.67
2018-03-15T19:06:36.367Z,11.83
2018-03-15T19:09:04.568Z,10.57
2018-03-15T19:11:32.015Z,9.60
2018-03-15T19:13:59.175Z,11.73
2018-03-15T19:16:25.471Z,10.93
2018-03-15T19:18:52.534Z,11.00
2018-03-15T19:21:19.593Z,11.17
2018-03-15T19:23:45.777Z,12.93
2018-03-15T19:26:12.156Z,12.20
2018-03-15T19:28:38.709Z,19.57
2018-03-15T19:31:05.308Z,13.50
2018-03-15T19:33:31.639Z,16.30
2018-03-15T19:35:58.518Z,15.70
2018-03-15T19:38:28.697Z,15.63
2018-03-15T19:40:55.668Z,12.07
2018-03-15T19:43:21.971Z,13.13
2018-03-15T19:45:48.393Z,12.60
2018-03-15T19:48:15.130Z,10.60
2018-03-15T19:50:44.163Z,13.87
2018-03-15T19:53:10.363Z,13.63
2018-03-15T19:55:37.334Z,12.70
2018-03-15T19:58:03.594Z,13.93
2018-03-15T20:00:30.930Z,16.53
2018-03-15T20:02:58.210Z,11.93
2018-03-15T20:05:24.411Z,13.00
2018-03-15T20:07:50.830Z,13.17
2018-03-15T20:10:18.376Z,11.70
2018-03-15T20:12:45.479Z,13.13
2018-03-15T20:15:14.742Z,13.73
2018-03-15T20:17:41.113Z,14.20
2018-03-15T20:20:07.382Z,11.27
2018-03-15T20:31:37.751Z,16.33
2018-03-15T20:34:11.656Z,16.60
2018-03-15T20:36:37.956Z,28.33
2018-03-15T20:39:11.998Z,14.23
2018-03-15T20:41:40.560Z,15.77
2018-03-15T20:44:08.495Z,13.07
2018-03-15T20:46:40.903Z,15.17
2018-03-15T20:49:15.125Z,17.07
2018-03-15T20:51:42.386Z,14.10
2018-03-15T20:54:10.667Z,13.33
2018-03-15T20:56:38.385Z,12.33
2018-03-15T20:59:06.011Z,16.00
2018-03-15T21:01:32.336Z,14.27
2018-03-15T21:04:01.535Z,18.87
2018-03-15T21:06:28.672Z,14.50
2018-03-15T21:08:55.065Z,16.67
2018-03-15T21:11:22.593Z,14.77
2018-03-15T21:13:52.118Z,15.87
2018-03-15T21:16:21.746Z,12.90
2018-03-15T21:18:51.591Z,20.23
2018-03-15T21:21:22.869Z,22.30
2018-03-15T21:26:25.460Z,13.43
2018-03-15T21:28:51.810Z,15.10
2018-03-15T21:31:20.010Z,15.10
2018-03-15T21:43:31.532Z,13.60
2018-03-15T21:45:58.932Z,16.13
2018-03-15T21:48:25.621Z,12.10
2018-03-15T21:50:53.021Z,15.27
2018-03-15T21:53:19.361Z,15.90
2018-03-15T21:55:45.728Z,14.27
2018-03-15T21:58:11.973Z,16.77
2018-03-15T22:00:38.362Z,16.43
2018-03-15T22:03:04.838Z,14.90
2018-03-15T22:05:31.083Z,15.10
2018-03-15T22:07:58.355Z,16.30
2018-03-15T22:10:25.347Z,15.43
2018-03-15T22:12:52.892Z,14.87
2018-03-15T22:15:19.193Z,13.50
2018-03-15T22:17:46.261Z,17.77
2018-03-15T22:20:13.143Z,14.63
2018-03-15T22:22:40.070Z,19.37
2018-03-15T22:25:06.876Z,15.70
2018-03-15T22:27:34.300Z,15.83
2018-03-15T22:30:00.662Z,15.80
2018-03-15T22:32:28.030Z,15.10
2018-03-15T22:34:54.361Z,15.97
2018-03-15T22:37:21.459Z,14.13
2018-03-15T22:39:47.784Z,15.77
2018-03-15T22:42:14.580Z,14.13
2018-03-15T22:44:43.391Z,18.80
2018-03-15T22:47:09.619Z,14.90
2018-03-15T22:49:37.593Z,16.40
2018-03-15T22:52:03.839Z,15.73
2018-03-15T22:54:31.860Z,17.90
2018-03-15T22:56:59.608Z,17.50
2018-03-15T22:59:25.903Z,16.00
2018-03-15T23:01:52.300Z,14.90
2018-03-15T23:04:18.990Z,17.47
2018-03-15T23:06:45.240Z,15.00
2018-03-15T23:09:11.568Z,19.20
2018-03-15T23:11:38.123Z,14.97
2018-03-15T23:14:06.140Z,16.73
2018-03-15T23:16:32.511Z,18.77
2018-03-15T23:18:59.669Z,22.00
2018-03-15T23:21:28.202Z,16.73
2018-03-15T23:23:54.436Z,17.30
2018-03-15T23:26:21.672Z,16.93
2018-03-15T23:28:48.791Z,17.77
2018-03-15T23:31:16.126Z,13.97
2018-03-15T23:33:43.660Z,17.93
2018-03-15T23:36:09.891Z,18.07
2018-03-15T23:38:36.687Z,16.90
2018-03-15T23:41:03.650Z,17.80
2018-03-15T23:43:30.663Z,22.03
2018-03-15T23:45:57.533Z,17.00
2018-03-15T23:48:25.263Z,16.00
2018-03-15T23:50:53.425Z,18.17
2018-03-15T23:53:19.626Z,18.20
2018-03-15T23:55:45.970Z,20.83
2018-03-15T23:58:12.319Z,19.53
